Time;durP1;ratioP1;P1;durP2;ratioP2;P2;SDS_P1;SDS_P2;PMS_P1;PMS_P2;Temp;Humidity;BMP_temperature;BMP_pressure;BME280_temperature;BME280_humidity;BME280_pressure;Samples;Min_cycle;Max_cycle;Signal;HPM_P1;HPM_P2
2022/08/11 00:00:01;;;;;;;7.23;5.83;;;;;;;22.74;96.83;99930.76;1703595;84;21565;-54
2022/08/11 00:02:35;;;;;;;7.77;5.80;;;;;;;23.00;92.58;99935.47;1703515;84;21098;-56
2022/08/11 00:05:12;;;;;;;7.27;6.10;;;;;;;23.26;88.81;99932.66;1702819;83;21771;-55
2022/08/11 00:07:53;;;;;;;8.97;5.80;;;;;;;23.35;85.69;99932.36;1702306;83;20941;-56
2022/08/11 00:10:23;;;;;;;7.97;5.85;;;;;;;23.47;83.40;99931.47;1703636;84;28354;-55
2022/08/11 00:13:01;;;;;;;6.40;5.60;;;;;;;23.64;80.67;99943.59;1703267;84;21068;-55
2022/08/11 00:15:40;;;;;;;7.60;6.10;;;;;;;23.82;78.39;99952.27;1703765;84;21043;-56
2022/08/11 00:18:08;;;;;;;6.17;5.57;;;;;;;23.89;76.39;99950.09;1703442;84;21138;-62
2022/08/11 00:20:39;;;;;;;6.23;5.60;;;;;;;24.01;75.23;99947.85;1703283;84;21050;-55
2022/08/11 00:23:11;;;;;;;6.85;5.33;;;;;;;24.07;74.00;99944.62;1703397;84;21082;-56
2022/08/11 00:25:44;;;;;;;6.97;6.00;;;;;;;24.09;73.54;99939.80;1703546;84;21315;-55
2022/08/11 00:28:32;;;;;;;7.83;5.70;;;;;;;24.11;73.86;99922.22;1703475;84;20913;-57
2022/08/11 00:31:05;;;;;;;7.57;5.47;;;;;;;24.12;72.37;99916.61;1704066;84;21204;-56
2022/08/11 00:33:39;;;;;;;6.47;5.10;;;;;;;24.19;71.21;99919.73;1703877;84;21098;-56
2022/08/11 00:36:08;;;;;;;8.10;6.13;;;;;;;24.26;70.21;99898.10;1703416;84;21024;-58
2022/08/11 00:38:38;;;;;;;8.67;7.50;;;;;;;24.33;94.17;99918.55;1703654;84;21605;-57
2022/08/11 00:41:22;;;;;;;8.20;6.40;;;;;;;24.21;100.00;99871.53;1686013;84;21056;-58
2022/08/11 00:44:18;;;;;;;11.83;8.37;;;;;;;23.69;100.00;99848.59;1703401;84;22329;-57
2022/08/11 00:47:12;;;;;;;9.63;7.63;;;;;;;23.04;100.00;99876.70;1703391;84;20944;-57
2022/08/11 00:50:20;;;;;;;9.90;7.33;;;;;;;22.66;100.00;99882.71;1653943;84;20999;-59
2022/08/11 00:53:28;;;;;;;8.27;7.40;;;;;;;22.29;100.00;99903.80;1705556;84;20999;-62
2022/08/11 00:56:01;;;;;;;10.97;6.53;;;;;;;21.89;100.00;99931.93;1659460;86;21508;-57
2022/08/11 00:58:42;;;;;;;8.20;6.50;;;;;;;21.59;100.00;99953.92;1706196;84;21573;-58
2022/08/11 01:01:39;;;;;;;7.37;6.67;;;;;;;21.47;100.00;99958.15;1659861;86;21557;-57
2022/08/11 01:04:56;;;;;;;12.40;6.87;;;;;;;21.53;100.00;99962.42;1699659;84;21514;-59
2022/08/11 01:08:07;;;;;;;8.30;6.73;;;;;;;21.47;100.00;99972.73;1685711;84;21333;-58
2022/08/11 01:11:06;;;;;;;9.70;6.45;;;;;;;21.45;100.00;99972.75;1709849;83;21380;-59
2022/08/11 01:14:22;;;;;;;9.63;6.83;;;;;;;21.46;100.00;99961.08;1713288;83;21167;-63
2022/08/11 01:17:10;;;;;;;7.47;6.10;;;;;;;21.52;100.00;99966.14;1726735;83;20999;-63
2022/08/11 01:20:11;;;;;;;8.47;6.50;;;;;;;21.51;100.00;99980.44;1726989;83;21118;-59
2022/08/11 01:23:11;;;;;;;8.45;6.08;;;;;;;21.56;100.00;99969.86;1726511;83;21050;-58
2022/08/11 01:26:16;;;;;;;9.30;6.10;;;;;;;21.61;100.00;99963.75;1630103;87;20980;-60
2022/08/11 01:29:13;;;;;;;7.27;5.60;;;;;;;21.66;100.00;99958.98;1726869;83;22080;-58
2022/08/11 01:31:51;;;;;;;8.47;6.00;;;;;;;21.68;100.00;99956.88;1724408;83;21447;-58
2022/08/11 01:34:47;;;;;;;6.67;5.90;;;;;;;21.69;100.00;99949.17;1678557;83;21001;-64
2022/08/11 01:37:49;;;;;;;7.83;6.70;;;;;;;21.67;100.00;99956.59;1726907;83;21314;-58
2022/08/11 01:40:50;;;;;;;8.40;6.80;;;;;;;21.72;100.00;99953.95;1726458;83;21328;-60
2022/08/11 01:46:37;;;;;;;9.90;6.80;;;;;;;21.67;100.00;99948.63;1727004;83;20982;-63
2022/08/11 01:49:18;;;;;;;9.87;6.37;;;;;;;21.65;100.00;99952.09;1727039;83;21505;-62
2022/08/11 01:52:08;;;;;;;7.13;6.20;;;;;;;21.61;100.00;99961.90;1726560;83;21082;-59
2022/08/11 01:54:45;;;;;;;7.03;6.17;;;;;;;21.52;100.00;99970.11;1726041;82;21603;-63
2022/08/11 01:57:55;;;;;;;7.13;6.43;;;;;;;21.48;100.00;99969.05;1727000;83;21139;-58
2022/08/11 02:00:27;;;;;;;7.50;6.57;;;;;;;21.40;100.00;99970.86;1727148;83;21030;-59
2022/08/11 02:03:14;;;;;;;9.00;6.90;;;;;;;21.45;100.00;99980.17;1726843;83;21051;-58
2022/08/11 02:09:19;;;;;;;10.33;7.43;;;;;;;21.41;100.00;100002.97;1739658;82;21993;-59
2022/08/11 02:11:46;;;;;;;7.70;6.95;;;;;;;21.39;100.00;99997.11;1739911;82;21862;-59
2022/08/11 02:14:30;;;;;;;8.83;6.83;;;;;;;21.38;100.00;100006.14;1740099;82;20975;-57
2022/08/11 02:17:24;;;;;;;8.60;6.17;;;;;;;21.36;100.00;100010.35;1740239;82;21113;-58
2022/08/11 02:23:38;;;;;;;8.63;7.07;;;;;;;21.26;100.00;100007.66;1740670;82;20975;-58
2022/08/11 02:26:14;;;;;;;8.93;7.57;;;;;;;21.26;100.00;100024.09;1740868;82;21151;-58
2022/08/11 02:29:01;;;;;;;8.47;6.83;;;;;;;21.19;100.00;100023.53;1740260;82;21050;-61
2022/08/11 02:34:52;;;;;;;8.23;7.27;;;;;;;21.26;100.00;100012.17;1740701;82;21931;-58
2022/08/11 02:37:46;;;;;;;9.10;7.70;;;;;;;21.31;100.00;100012.17;1684867;82;21036;-58
2022/08/11 02:40:39;;;;;;;8.97;7.33;;;;;;;21.34;100.00;100013.81;1713964;82;22640;-59
2022/08/11 02:43:21;;;;;;;9.20;8.17;;;;;;;21.33;100.00;100014.08;1738932;82;20978;-64
2022/08/11 02:46:16;;;;;;;9.97;7.00;;;;;;;21.46;100.00;100012.25;1691891;84;21607;-58
2022/08/11 02:52:03;;;;;;;9.27;7.50;;;;;;;21.40;100.00;100013.28;1666678;84;20933;-57
2022/08/11 02:55:11;;;;;;;9.63;7.25;;;;;;;21.46;100.00;100018.88;1692228;84;21236;-58
2022/08/11 02:57:45;;;;;;;8.40;7.50;;;;;;;21.51;100.00;100014.12;1691539;83;21102;-58
2022/08/11 03:00:14;;;;;;;8.77;6.83;;;;;;;21.57;100.00;100023.69;1692198;84;20991;-58
2022/08/11 03:03:03;;;;;;;8.37;7.50;;;;;;;21.57;100.00;100029.80;1739906;82;21419;-63
2022/08/11 03:05:50;;;;;;;8.87;7.97;;;;;;;21.61;100.00;100018.92;1739720;82;21244;-58
2022/08/11 03:09:12;;;;;;;10.27;7.60;;;;;;;21.71;100.00;100027.98;1739537;81;21326;-58
2022/08/11 03:18:43;;;;;;;10.27;7.97;;;;;;;21.97;100.00;100026.97;1649652;86;21038;-58
2022/08/11 03:21:29;;;;;;;10.63;7.97;;;;;;;22.08;100.00;100025.89;1740263;82;20990;-59
2022/08/11 03:24:03;;;;;;;10.50;8.20;;;;;;;22.23;100.00;100025.12;1683056;82;21307;-56
2022/08/11 03:26:54;;;;;;;9.03;7.93;;;;;;;22.32;100.00;100026.74;1739756;82;20992;-59
2022/08/11 03:29:34;;;;;;;9.10;8.08;;;;;;;22.41;100.00;100031.77;1699823;82;21024;-58
2022/08/11 03:32:22;;;;;;;11.20;7.67;;;;;;;22.44;100.00;100041.08;1739927;82;21078;-58
2022/08/11 03:34:49;;;;;;;8.83;7.93;;;;;;;22.47;100.00;100049.30;1691515;84;21011;-58
2022/08/11 03:43:40;;;;;;;8.67;7.73;;;;;;;22.48;100.00;100061.52;1692269;84;21003;-57
2022/08/11 03:46:15;;;;;;;9.80;8.30;;;;;;;22.49;100.00;100062.31;1691080;84;20898;-59
2022/08/11 03:49:21;;;;;;;10.30;8.70;;;;;;;22.48;100.00;100060.19;1691459;84;21532;-58
2022/08/11 03:51:55;;;;;;;11.10;8.07;;;;;;;22.49;100.00;100062.31;1686525;84;21478;-58
2022/08/11 03:55:15;;;;;;;9.37;8.13;;;;;;;22.49;100.00;100071.61;1739097;82;21018;-65
2022/08/11 03:58:09;;;;;;;9.63;8.53;;;;;;;22.50;100.00;100073.19;1738767;82;20991;-64
2022/08/11 04:00:59;;;;;;;10.43;8.07;;;;;;;22.49;100.00;100078.24;1691766;84;21121;-57
2022/08/11 04:03:38;;;;;;;11.33;8.73;;;;;;;22.50;100.00;100071.86;1692061;84;21074;-58
2022/08/11 04:06:46;;;;;;;8.63;7.73;;;;;;;22.50;100.00;100073.19;1706458;83;21331;-60
2022/08/11 04:10:08;;;;;;;10.40;9.17;;;;;;;22.49;100.00;100076.38;1710365;83;20994;-58
2022/08/11 04:13:19;;;;;;;10.77;8.17;;;;;;;22.47;100.00;100077.73;1711153;83;20988;-58
2022/08/11 04:16:20;;;;;;;11.13;9.00;;;;;;;22.37;100.00;100081.17;1680934;82;21517;-64
2022/08/11 04:19:31;;;;;;;10.23;8.73;;;;;;;21.81;100.00;100091.66;1712841;82;21575;-59
2022/08/11 04:22:47;;;;;;;12.53;9.77;;;;;;;21.13;100.00;100096.38;1728624;82;21255;-60
2022/08/11 04:25:58;;;;;;;10.10;9.10;;;;;;;20.67;100.00;100109.06;1728781;82;21082;-66
2022/08/11 04:28:45;;;;;;;11.80;10.30;;;;;;;20.34;100.00;100113.50;1682030;82;21599;-58
2022/08/11 04:31:48;;;;;;;19.43;11.07;;;;;;;20.16;100.00;100094.30;1728240;82;21077;-60
2022/08/11 04:34:41;;;;;;;15.90;11.37;;;;;;;20.12;100.00;100081.30;1705072;82;21007;-63
2022/08/11 04:37:48;;;;;;;14.37;12.30;;;;;;;19.99;100.00;100067.66;1685081;82;21860;-57
2022/08/11 04:41:13;;;;;;;13.20;11.13;;;;;;;19.96;100.00;100062.86;1730046;82;20971;-57
2022/08/11 04:44:10;;;;;;;13.00;10.90;;;;;;;19.99;100.00;100075.59;1729720;82;21049;-57
2022/08/11 05:01:39;;;;;;;12.63;10.87;;;;;;;20.03;100.00;100060.81;1713343;83;21078;-58
2022/08/11 05:02:59;;;;;;;15.60;12.47;;;;;;;20.91;100.00;100062.62;1729204;82;20916;-58
2022/08/11 05:05:37;;;;;;;13.83;11.63;;;;;;;21.07;100.00;100106.70;1725927;82;20999;-59
2022/08/11 05:08:37;;;;;;;11.13;9.97;;;;;;;21.17;100.00;100116.55;1721397;83;21800;-59
2022/08/11 05:11:31;;;;;;;14.30;11.70;;;;;;;21.24;100.00;100116.33;1721480;83;21039;-60
2022/08/11 05:37:33;;;;;;;12.53;11.23;;;;;;;22.96;100.00;100103.76;1721363;83;21178;-59
2022/08/11 05:56:55;;;;;;;16.20;12.60;;;;;;;23.20;100.00;100086.67;1721407;83;21177;-58
2022/08/11 05:59:23;;;;;;;13.97;12.07;;;;;;;23.21;100.00;100078.95;1721463;83;21004;-58
2022/08/11 06:01:51;;;;;;;15.23;12.67;;;;;;;23.29;100.00;100079.18;1721026;83;20857;-64
2022/08/11 06:04:23;;;;;;;13.87;12.53;;;;;;;23.30;100.00;100080.00;1721445;83;21553;-62
2022/08/11 06:07:07;;;;;;;14.30;12.47;;;;;;;23.37;100.00;100062.40;1736131;82;21418;-58
2022/08/11 06:09:39;;;;;;;14.10;12.70;;;;;;;23.40;100.00;100077.82;1740097;82;21002;-65
2022/08/11 06:12:10;;;;;;;14.73;12.30;;;;;;;23.40;100.00;100088.46;1738941;82;21061;-60
2022/08/11 06:14:42;;;;;;;14.80;13.15;;;;;;;23.42;100.00;100089.00;1738275;82;21024;-62
2022/08/11 06:17:09;;;;;;;13.97;11.63;;;;;;;23.49;100.00;100091.63;1739310;82;21143;-58
2022/08/11 06:19:41;;;;;;;14.47;13.07;;;;;;;23.53;100.00;100088.68;1739556;82;21024;-61
2022/08/11 06:22:10;;;;;;;15.00;12.70;;;;;;;23.65;100.00;100090.23;1740015;82;21010;-59
2022/08/11 06:24:41;;;;;;;12.77;11.50;;;;;;;23.75;100.00;100096.33;1739567;82;21009;-60
2022/08/11 06:27:08;;;;;;;14.33;12.13;;;;;;;23.84;100.00;100085.10;1740287;82;21102;-59
2022/08/11 06:29:40;;;;;;;13.93;11.47;;;;;;;23.99;100.00;100073.82;1739566;82;21314;-64
2022/08/11 06:32:05;;;;;;;13.33;11.93;;;;;;;24.13;100.00;100071.84;1739470;82;21057;-58
2022/08/11 06:34:38;;;;;;;13.40;12.03;;;;;;;24.25;100.00;100065.12;1739504;82;21029;-58
2022/08/11 06:37:51;;;;;;;13.93;12.53;;;;;;;24.35;100.00;100070.88;1739968;82;20979;-58
2022/08/11 06:41:28;;;;;;;12.77;11.50;;;;;;;24.48;100.00;100072.16;1706141;82;21460;-57
2022/08/11 06:43:23;;;;;;;14.33;12.80;;;;;;;24.64;100.00;100071.48;1735121;82;21242;-58
2022/08/11 06:46:03;;;;;;;13.60;12.30;;;;;;;24.82;100.00;100076.11;1740212;82;22382;-58
2022/08/11 06:48:32;;;;;;;15.63;13.50;;;;;;;24.98;100.00;100078.08;1712439;82;21050;-58
2022/08/11 06:51:13;;;;;;;14.13;11.57;;;;;;;25.13;100.00;100077.15;1739974;82;22331;-57
2022/08/11 06:53:59;;;;;;;13.48;12.10;;;;;;;25.24;100.00;100070.07;1714515;82;21054;-65
2022/08/11 07:02:09;;;;;;;14.60;13.20;;;;;;;25.56;100.00;100075.27;1740026;82;21121;-60
2022/08/11 07:04:53;;;;;;;14.07;12.67;;;;;;;25.71;100.00;100073.73;1740019;82;21218;-57
2022/08/11 07:16:49;;;;;;;14.83;13.43;;;;;;;26.72;100.00;100083.19;1720930;83;20194;-57
2022/08/11 07:52:25;;;;;;;14.85;13.45;;;;;;;28.42;100.00;100086.09;1727079;81;20940;-65
2022/08/11 07:54:54;;;;;;;16.12;14.45;;;;;;;28.58;100.00;100092.64;1755047;81;21650;-57
2022/08/11 08:19:31;;;;;;;15.85;14.25;;;;;;;31.84;56.13;100083.90;1754755;81;20943;-56
2022/08/11 08:21:58;;;;;;;16.90;14.07;;;;;;;31.58;56.93;100086.23;1755118;81;21145;-55
2022/08/11 08:24:25;;;;;;;16.07;14.53;;;;;;;31.37;57.51;100086.23;1753591;81;21044;-56
2022/08/11 08:26:58;;;;;;;15.43;13.78;;;;;;;31.22;59.83;100076.78;1754904;81;21050;-55
2022/08/11 08:32:15;;;;;;;16.00;14.50;;;;;;;31.59;59.91;100072.98;1755000;81;21431;-56
2022/08/11 08:34:42;;;;;;;15.65;14.00;;;;;;;32.15;60.75;100069.44;1755001;81;21391;-56
2022/08/11 08:37:10;;;;;;;15.75;14.33;;;;;;;32.85;59.27;100064.09;1754731;81;21008;-56
2022/08/11 08:39:37;;;;;;;15.50;13.98;;;;;;;33.56;53.83;100062.80;1754470;81;21006;-65
2022/08/11 08:42:11;;;;;;;15.00;13.60;;;;;;;34.05;49.99;100061.85;1754355;81;20920;-57
2022/08/11 08:44:45;;;;;;;14.95;13.55;;;;;;;34.17;49.32;100053.67;1754593;81;20983;-57
2022/08/11 08:47:15;;;;;;;14.30;12.93;;;;;;;34.21;49.85;100042.40;1754697;81;21892;-56
2022/08/11 08:49:49;;;;;;;14.90;13.18;;;;;;;34.24;47.00;100040.90;1731715;81;20960;-57
2022/08/11 08:52:21;;;;;;;14.68;13.28;;;;;;;34.33;47.83;100042.89;1751381;81;21079;-56
2022/08/11 08:54:52;;;;;;;15.18;13.68;;;;;;;34.43;46.66;100041.56;1751165;81;21482;-57
2022/08/11 08:57:22;;;;;;;14.50;13.20;;;;;;;34.49;45.87;100033.41;1732292;81;21474;-61
2022/08/11 08:59:49;;;;;;;14.15;12.85;;;;;;;34.62;45.89;100024.08;1750820;81;21802;-57
2022/08/11 09:02:19;;;;;;;14.93;13.62;;;;;;;34.82;45.84;100027.66;1750842;81;20960;-55
2022/08/11 09:04:46;;;;;;;15.53;13.93;;;;;;;35.02;44.14;100017.11;1750885;81;21022;-56
2022/08/11 09:07:16;;;;;;;13.88;12.60;;;;;;;35.15;42.68;100016.98;1750292;81;20949;-56
2022/08/11 09:09:55;;;;;;;14.37;12.97;;;;;;;35.38;40.11;100024.63;1750464;81;21317;-56
2022/08/11 09:12:29;;;;;;;13.68;12.35;;;;;;;35.63;39.62;100006.77;1750700;81;21270;-56
2022/08/11 09:15:05;;;;;;;13.38;11.97;;;;;;;35.81;37.60;100003.81;1750464;81;20968;-56
2022/08/11 09:17:44;;;;;;;16.25;9.98;;;;;;;35.77;37.24;100013.82;1733323;81;20928;-56
2022/08/11 09:20:21;;;;;;;11.93;10.67;;;;;;;35.76;34.66;100000.83;1750498;81;21478;-58
2022/08/11 09:28:21;;;;;;;11.40;10.00;;;;;;;35.02;33.50;100008.98;1750140;81;21000;-63
2022/08/11 09:30:53;;;;;;;10.30;9.30;;;;;;;34.88;33.70;100003.79;1750942;81;22070;-56
2022/08/11 09:33:23;;;;;;;10.50;8.90;;;;;;;34.96;34.47;100003.58;1751021;81;21466;-63
2022/08/11 09:35:51;;;;;;;9.85;8.93;;;;;;;35.19;34.16;100002.36;1750433;81;20917;-55
2022/08/11 09:41:07;;;;;;;9.55;8.28;;;;;;;35.21;34.03;100002.02;1750454;81;20884;-63
2022/08/11 09:46:27;;;;;;;8.53;7.72;;;;;;;35.50;33.51;100000.72;1750278;81;21067;-56
2022/08/11 09:48:57;;;;;;;8.88;7.97;;;;;;;35.57;33.57;99989.98;1752044;81;20948;-57
2022/08/11 09:51:27;;;;;;;9.28;7.83;;;;;;;35.79;32.93;99987.11;1753797;81;21242;-57
2022/08/11 09:53:54;;;;;;;9.67;8.13;;;;;;;35.98;32.88;99981.67;1692202;83;21473;-56
2022/08/11 09:59:07;;;;;;;10.43;8.43;;;;;;;36.08;32.41;99978.94;1717440;83;21255;-64
2022/08/11 10:01:44;;;;;;;12.53;8.95;;;;;;;36.10;32.65;99993.48;1717960;82;21914;-55
2022/08/11 10:04:17;;;;;;;10.38;9.15;;;;;;;36.16;31.75;99976.55;1717921;83;21944;-57
2022/08/11 10:07:00;;;;;;;10.00;8.75;;;;;;;36.36;31.87;99975.89;1717260;83;20975;-59
2022/08/11 10:09:47;;;;;;;8.88;7.90;;;;;;;36.44;31.33;99978.92;1717953;83;21022;-56
2022/08/11 10:12:29;;;;;;;8.95;8.05;;;;;;;36.61;31.13;99980.96;1716808;83;20987;-56
2022/08/11 10:20:36;;;;;;;12.10;9.38;;;;;;;36.34;31.23;99988.28;1700140;84;20177;-56
2022/08/11 10:28:36;;;;;;;10.82;9.65;;;;;;;36.32;32.22;99978.34;1700035;84;20957;-56
2022/08/11 10:34:00;;;;;;;10.38;9.05;;;;;;;36.50;31.63;99981.58;1699812;84;21095;-56
2022/08/11 10:36:28;;;;;;;11.22;9.20;;;;;;;36.52;31.69;99979.30;1699941;84;20996;-58
2022/08/11 10:38:56;;;;;;;12.80;9.15;;;;;;;36.57;31.51;99973.34;1674905;84;21318;-64
2022/08/11 10:44:10;;;;;;;9.85;8.60;;;;;;;36.29;31.60;99963.02;1699605;84;21280;-56
2022/08/11 10:49:24;;;;;;;11.15;10.13;;;;;;;36.17;31.93;99969.19;1698824;84;21064;-56
2022/08/11 11:00:13;;;;;;;10.88;8.90;;;;;;;36.31;32.96;99969.42;1704555;83;20960;-56
2022/08/11 11:02:39;;;;;;;9.08;8.18;;;;;;;36.43;32.63;99952.16;1704983;83;21530;-56
2022/08/11 11:05:15;;;;;;;11.00;9.33;;;;;;;36.54;32.54;99953.91;1704675;84;21020;-57
2022/08/11 11:08:03;;;;;;;10.23;9.33;;;;;;;36.58;32.36;99957.25;1704427;84;21532;-56
2022/08/11 11:10:29;;;;;;;10.45;9.35;;;;;;;36.52;33.00;99949.42;1699837;84;21257;-57
2022/08/11 11:18:34;;;;;;;10.25;9.25;;;;;;;36.62;31.85;99947.22;1704183;84;21491;-65
2022/08/11 11:21:14;;;;;;;9.25;7.85;;;;;;;36.66;31.84;99939.91;1705270;84;22095;-56
2022/08/11 11:24:21;;;;;;;9.63;8.63;;;;;;;36.65;32.25;99944.56;1705089;84;22056;-57
2022/08/11 11:27:18;;;;;;;10.03;8.63;;;;;;;36.58;32.86;99949.88;1704633;84;20949;-56
2022/08/11 11:30:07;;;;;;;9.70;8.80;;;;;;;36.59;32.64;99943.30;1702965;84;21529;-56
2022/08/11 11:33:14;;;;;;;10.88;9.73;;;;;;;36.56;32.13;99941.34;1704698;84;20957;-56
2022/08/11 11:36:10;;;;;;;10.40;8.68;;;;;;;36.49;31.93;99940.66;1704683;83;20960;-58
2022/08/11 11:38:37;;;;;;;10.70;9.50;;;;;;;36.31;31.77;99935.50;1703656;84;21613;-57
2022/08/11 11:44:00;;;;;;;13.45;11.03;;;;;;;36.19;31.23;99928.92;1704071;84;21060;-57
2022/08/11 11:46:26;;;;;;;11.73;10.53;;;;;;;36.21;31.09;99927.39;1702401;84;21001;-57
2022/08/11 11:48:54;;;;;;;13.68;10.78;;;;;;;36.15;31.35;99922.66;1703683;84;21110;-57
2022/08/11 11:51:22;;;;;;;13.83;12.43;;;;;;;36.15;31.16;99926.14;1697243;84;22298;-58
2022/08/11 11:53:50;;;;;;;12.80;11.45;;;;;;;36.17;31.04;99935.27;1696628;84;21073;-56
2022/08/11 11:56:17;;;;;;;13.60;12.28;;;;;;;36.21;29.57;99942.31;1696875;84;20941;-58
2022/08/11 12:01:31;;;;;;;13.75;12.45;;;;;;;36.16;31.03;99935.84;1696654;84;21061;-57
2022/08/11 12:03:59;;;;;;;13.32;12.03;;;;;;;36.22;29.50;99922.77;1696816;84;21145;-59
2022/08/11 12:06:26;;;;;;;13.85;11.63;;;;;;;36.13;29.74;99927.65;1696631;84;21669;-57
2022/08/11 12:08:55;;;;;;;16.20;12.20;;;;;;;36.09;29.48;99933.02;1697020;84;20949;-58
2022/08/11 12:14:09;;;;;;;13.30;11.70;;;;;;;36.05;30.76;99938.38;1696665;84;21018;-57
2022/08/11 12:16:40;;;;;;;15.55;11.90;;;;;;;36.15;29.91;99936.22;1697054;84;21253;-57
2022/08/11 12:19:20;;;;;;;13.22;11.85;;;;;;;36.15;30.23;99932.93;1696288;83;20994;-57
2022/08/11 12:27:19;;;;;;;12.65;11.33;;;;;;;36.10;30.11;99939.22;1696639;84;21021;-59
2022/08/11 12:29:49;;;;;;;12.35;11.15;;;;;;;35.68;30.84;99928.61;1696946;84;21230;-57
2022/08/11 12:32:16;;;;;;;14.63;13.22;;;;;;;35.38;31.63;99935.19;1694845;84;21021;-61
2022/08/11 12:34:45;;;;;;;13.30;12.00;;;;;;;35.06;31.73;99933.99;1696963;84;21386;-57
2022/08/11 12:37:12;;;;;;;14.50;12.30;;;;;;;34.70;32.30;99935.14;1696902;83;20984;-58
2022/08/11 12:45:28;;;;;;;14.85;13.43;;;;;;;33.94;33.98;99933.65;1696827;84;21397;-58
2022/08/11 12:54:12;;;;;;;14.65;12.50;;;;;;;34.68;34.89;99941.47;1697372;84;20933;-56
2022/08/11 13:05:08;;;;;;;12.68;11.43;;;;;;;34.49;36.39;99932.73;1697392;83;21001;-67
2022/08/11 13:07:35;;;;;;;12.88;11.68;;;;;;;34.66;36.45;99928.84;1696386;84;21016;-58
2022/08/11 13:10:04;;;;;;;12.23;11.00;;;;;;;34.82;36.12;99922.05;1654725;84;21846;-58
2022/08/11 13:12:47;;;;;;;13.08;11.78;;;;;;;34.97;36.22;99925.27;1697284;84;21597;-56
2022/08/11 13:15:17;;;;;;;12.93;11.00;;;;;;;35.13;35.66;99922.52;1696457;84;20986;-63
2022/08/11 13:17:47;;;;;;;12.63;11.33;;;;;;;35.06;35.54;99921.02;1696525;83;20961;-57
2022/08/11 13:20:18;;;;;;;12.70;11.20;;;;;;;34.90;35.36;99922.41;1697528;84;21087;-56
2022/08/11 13:22:48;;;;;;;12.43;11.30;;;;;;;34.72;35.96;99924.73;1696838;84;22573;-66
2022/08/11 13:25:20;;;;;;;13.28;11.85;;;;;;;34.54;36.57;99919.48;1696827;83;28652;-65
2022/08/11 13:27:48;;;;;;;13.90;12.60;;;;;;;34.30;36.39;99917.76;1696953;84;21087;-56
2022/08/11 13:33:01;;;;;;;12.98;11.65;;;;;;;33.70;37.45;99922.42;1603199;87;21569;-57
2022/08/11 13:35:30;;;;;;;11.70;10.53;;;;;;;33.46;38.30;99930.07;1651210;85;22507;-57
2022/08/11 13:38:00;;;;;;;12.53;11.38;;;;;;;33.37;38.31;99932.91;1696465;84;21242;-56
2022/08/11 13:40:27;;;;;;;12.25;11.20;;;;;;;33.35;38.95;99924.37;1704369;84;20976;-58
2022/08/11 13:42:54;;;;;;;12.43;11.22;;;;;;;33.46;39.41;99936.83;1703750;84;21012;-56
2022/08/11 13:45:24;;;;;;;12.45;11.40;;;;;;;33.57;39.43;99926.55;1703864;84;21400;-57
2022/08/11 13:47:54;;;;;;;12.20;10.95;;;;;;;33.66;39.00;99923.69;1704622;84;24747;-57
2022/08/11 13:51:29;;;;;;;12.30;11.03;;;;;;;33.73;39.73;99928.50;1706895;83;21004;-58
2022/08/11 13:52:50;;;;;;;13.32;12.03;;;;;;;33.83;39.94;99903.63;1705578;83;21057;-59
2022/08/11 13:55:26;;;;;;;11.90;10.80;;;;;;;33.85;38.67;99927.06;1709583;83;21390;-58
2022/08/11 13:57:47;;;;;;;11.78;10.60;;;;;;;33.74;39.01;99915.97;1706137;83;21384;-57
2022/08/11 14:00:15;;;;;;;12.73;11.40;;;;;;;33.55;39.38;99913.94;1709988;83;21087;-57
2022/08/11 14:02:44;;;;;;;12.85;11.35;;;;;;;33.36;39.34;99927.28;1683726;83;20988;-65
2022/08/11 14:05:16;;;;;;;12.35;11.05;;;;;;;33.14;39.72;99912.39;1710006;83;21354;-63
2022/08/11 14:07:52;;;;;;;13.15;11.80;;;;;;;32.91;39.72;99923.67;1710068;83;20963;-56
2022/08/11 14:10:23;;;;;;;13.13;11.93;;;;;;;32.73;40.20;99912.13;1710126;83;21261;-63
2022/08/11 14:15:43;;;;;;;;;;;;;;;32.51;41.17;99909.37;1712537;83;21756;-57
2022/08/11 14:18:21;;;;;;;12.40;11.10;;;;;;;32.51;41.30;99906.11;1710056;83;20435;-59
2022/08/11 14:23:49;;;;;;;12.28;11.18;;;;;;;32.45;41.53;99909.58;1709735;83;21004;-65
2022/08/11 14:26:25;;;;;;;12.53;11.22;;;;;;;32.34;42.07;99910.34;1709783;83;21242;-58
2022/08/11 14:29:02;;;;;;;14.65;10.88;;;;;;;32.27;42.08;99908.20;1710171;83;21783;-58
2022/08/11 14:31:30;;;;;;;13.25;11.88;;;;;;;32.19;42.55;99918.54;1709640;83;20960;-57
2022/08/11 14:34:01;;;;;;;13.25;12.05;;;;;;;32.14;42.47;99908.77;1710243;83;21125;-57
2022/08/11 14:36:30;;;;;;;;;;;;;;;32.15;42.88;99912.25;1712423;83;21544;-58
2022/08/11 14:38:58;;;;;;;12.95;11.75;;;;;;;32.11;42.48;99922.91;1709981;83;21304;-59
2022/08/11 14:47:04;;;;;;;13.43;12.13;;;;;;;32.08;43.32;99908.75;1709914;83;21118;-57
2022/08/11 14:49:36;;;;;;;14.03;12.65;;;;;;;32.08;43.27;99921.45;1710217;83;21503;-61
2022/08/11 14:52:06;;;;;;;14.07;12.15;;;;;;;32.06;43.51;99906.97;1704380;83;21809;-56
2022/08/11 14:57:19;;;;;;;14.05;11.30;;;;;;;32.08;43.68;99957.28;1704363;84;21021;-66
2022/08/11 14:59:48;;;;;;;16.15;10.35;;;;;;;31.95;42.08;99969.18;1704437;83;20984;-57
2022/08/11 15:05:01;;;;;;;10.63;8.93;;;;;;;31.26;42.25;99984.79;1704248;84;21178;-59
2022/08/11 15:07:28;;;;;;;10.15;9.00;;;;;;;30.84;44.82;99983.96;1704040;84;21021;-57
2022/08/11 15:09:58;;;;;;;10.45;8.30;;;;;;;30.43;47.04;99970.59;1704159;84;21040;-67
2022/08/11 15:12:25;;;;;;;18.98;9.53;;;;;;;30.10;49.78;99962.29;1704657;84;21134;-56
2022/08/11 15:17:39;;;;;;;11.83;9.63;;;;;;;29.38;57.63;99968.36;1703974;84;21132;-65
2022/08/11 15:25:45;;;;;;;10.38;7.05;;;;;;;28.64;61.75;99959.22;1704261;84;21031;-56
2022/08/11 15:39:29;;;;;;;10.93;8.00;;;;;;;28.23;60.02;99951.45;1704470;84;21009;-64
2022/08/11 15:47:56;;;;;;;10.00;8.10;;;;;;;27.84;67.81;99927.50;1704252;84;21506;-55
2022/08/11 15:50:26;;;;;;;10.10;9.08;;;;;;;27.72;69.94;99927.24;1704477;83;21063;-60
2022/08/11 15:53:15;;;;;;;11.38;9.83;;;;;;;27.64;71.97;99927.42;1710208;83;20992;-58
2022/08/11 15:55:42;;;;;;;10.35;9.25;;;;;;;27.56;73.45;99927.61;1710194;83;21106;-55
2022/08/11 16:04:12;;;;;;;10.30;9.30;;;;;;;27.40;73.59;99924.51;1709175;83;21009;-56
2022/08/11 16:07:14;;;;;;;10.03;9.00;;;;;;;27.31;73.74;99926.30;1710366;83;21484;-57
2022/08/11 16:09:47;;;;;;;10.40;9.30;;;;;;;27.28;74.51;99928.27;1709974;83;21075;-58
2022/08/11 16:12:18;;;;;;;11.00;9.48;;;;;;;27.23;75.11;99931.05;1710362;83;21177;-56
2022/08/11 16:17:47;;;;;;;10.33;9.23;;;;;;;27.13;76.17;99931.29;1710204;83;21000;-56
2022/08/11 16:20:17;;;;;;;10.80;9.80;;;;;;;27.06;75.87;99941.58;1709683;83;20985;-56
2022/08/11 16:22:46;;;;;;;11.43;9.10;;;;;;;27.02;75.78;99935.25;1709481;83;21049;-61
2022/08/11 16:25:21;;;;;;;10.37;9.17;;;;;;;26.98;74.16;99934.27;1710210;83;21826;-58
2022/08/11 16:28:07;;;;;;;9.73;8.70;;;;;;;26.93;74.49;99941.31;1709836;83;21048;-58
2022/08/11 16:30:35;;;;;;;9.67;8.60;;;;;;;26.90;73.03;99940.56;1709586;83;20951;-60
2022/08/11 16:33:03;;;;;;;11.33;9.43;;;;;;;26.88;71.62;99937.38;1709965;83;22100;-56
2022/08/11 16:38:35;;;;;;;9.50;8.60;;;;;;;26.86;70.61;99944.93;1709726;83;21298;-57
2022/08/11 16:41:08;;;;;;;12.73;9.00;;;;;;;26.88;69.79;99946.74;1709588;83;20932;-61
2022/08/11 16:49:25;;;;;;;12.40;11.10;;;;;;;26.92;70.74;99940.25;1709282;83;21122;-63
2022/08/11 16:51:53;;;;;;;12.27;11.03;;;;;;;26.95;71.82;99940.20;1706502;83;21271;-56
2022/08/11 16:54:20;;;;;;;11.67;10.47;;;;;;;26.91;72.73;99936.79;1704446;84;20949;-64
2022/08/11 16:56:50;;;;;;;11.97;10.43;;;;;;;26.92;73.77;99943.72;1704558;84;21431;-56
2022/08/11 16:59:29;;;;;;;13.13;11.83;;;;;;;26.96;73.95;99948.47;1704668;84;21408;-57
2022/08/11 17:02:07;;;;;;;13.10;11.83;;;;;;;26.99;74.59;99941.19;1676901;84;20957;-57
2022/08/11 17:13:15;;;;;;;16.90;14.93;;;;;;;27.07;79.60;99954.64;1703926;84;20984;-58
2022/08/11 17:18:39;;;;;;;16.93;15.23;;;;;;;27.08;81.85;99955.43;1653996;84;21194;-55